KORL/ORL METAR and TAF weather

Enter ICAO airport designator
Station Type Date Time Source
KORL METAR 2020/09/22 17:53 UTC NOAA

KORL 221753Z 07017KT 10SM FEW038 BKN060 OVC070 28/18 A3008 RMK AO2 SLP188 60000 T02830183 10300 20233 58007


Station Type Date Time Source
KORL Decoded METAR 2020/09/22 17:53 UTC NOAA

ORLANDO EXECUTIVE AIRPORT, FL, United States (KORL) 28-33N 081-20W 37M
Sep 22, 2020 - 01:53 PM EDT / 2020.09.22 1753 UTC
Wind: from the ENE (070 degrees) at 20 MPH (17 KT):0
Visibility: 10 mile(s):0
Sky conditions: overcast
Temperature: 82.9 F (28.3 C)
Dew Point: 64.9 F (18.3 C)
Relative Humidity: 54%
Pressure (altimeter): 30.08 in. Hg (1018 hPa)
Pressure tendency: 0.02 inches (0.7 hPa) lower than three hours ago
ob: KORL 221753Z 07017KT 10SM FEW038 BKN060 OVC070 28/18 A3008 RMK AO2 SLP188 60000 T02830183 10300 20233 58007
cycle: 18

Station Type Date Time Source
KORL TAF UTC NOAA

Error!

Example: see airport list